sensor_id;sensor_type;location;lat;lon;timestamp;P1;durP1;ratioP1;P2;durP2;ratioP2
21192;SDS011;10754;51.106;7.164;2023-07-22T00:00:45;3.95;;;3.65;;
21192;SDS011;10754;51.106;7.164;2023-07-22T00:03:11;3.92;;;3.55;;
21192;SDS011;10754;51.106;7.164;2023-07-22T00:05:36;4.05;;;3.28;;
21192;SDS011;10754;51.106;7.164;2023-07-22T00:08:02;4.45;;;3.60;;
21192;SDS011;10754;51.106;7.164;2023-07-22T00:10:28;3.78;;;3.47;;
21192;SDS011;10754;51.106;7.164;2023-07-22T00:12:54;3.38;;;3.08;;
21192;SDS011;10754;51.106;7.164;2023-07-22T00:15:19;3.83;;;3.13;;
21192;SDS011;10754;51.106;7.164;2023-07-22T00:17:47;3.60;;;3.30;;
21192;SDS011;10754;51.106;7.164;2023-07-22T00:20:13;3.47;;;3.17;;
21192;SDS011;10754;51.106;7.164;2023-07-22T00:22:39;3.10;;;2.90;;
21192;SDS011;10754;51.106;7.164;2023-07-22T00:25:05;4.18;;;3.20;;
21192;SDS011;10754;51.106;7.164;2023-07-22T00:27:32;4.18;;;3.78;;
21192;SDS011;10754;51.106;7.164;2023-07-22T00:29:58;4.47;;;3.95;;
21192;SDS011;10754;51.106;7.164;2023-07-22T00:32:23;3.60;;;3.30;;
21192;SDS011;10754;51.106;7.164;2023-07-22T00:34:49;3.17;;;2.88;;
21192;SDS011;10754;51.106;7.164;2023-07-22T00:37:14;3.42;;;3.13;;
21192;SDS011;10754;51.106;7.164;2023-07-22T00:39:41;6.45;;;3.58;;
21192;SDS011;10754;51.106;7.164;2023-07-22T00:42:07;3.42;;;3.13;;
21192;SDS011;10754;51.106;7.164;2023-07-22T00:44:33;3.78;;;3.17;;
21192;SDS011;10754;51.106;7.164;2023-07-22T00:46:59;3.70;;;3.17;;
21192;SDS011;10754;51.106;7.164;2023-07-22T00:49:26;3.53;;;3.10;;
21192;SDS011;10754;51.106;7.164;2023-07-22T00:51:53;3.90;;;3.60;;
21192;SDS011;10754;51.106;7.164;2023-07-22T00:54:19;3.78;;;3.42;;
21192;SDS011;10754;51.106;7.164;2023-07-22T00:56:45;3.95;;;3.45;;
21192;SDS011;10754;51.106;7.164;2023-07-22T00:59:12;4.40;;;3.40;;
21192;SDS011;10754;51.106;7.164;2023-07-22T01:01:40;4.60;;;3.20;;
21192;SDS011;10754;51.106;7.164;2023-07-22T01:04:05;3.60;;;3.30;;
21192;SDS011;10754;51.106;7.164;2023-07-22T01:06:32;3.60;;;3.30;;
21192;SDS011;10754;51.106;7.164;2023-07-22T01:08:59;3.50;;;3.20;;
21192;SDS011;10754;51.106;7.164;2023-07-22T01:11:25;4.10;;;3.80;;
21192;SDS011;10754;51.106;7.164;2023-07-22T01:13:50;3.60;;;3.30;;
21192;SDS011;10754;51.106;7.164;2023-07-22T01:16:17;4.32;;;3.38;;
21192;SDS011;10754;51.106;7.164;2023-07-22T01:18:43;4.15;;;3.80;;
21192;SDS011;10754;51.106;7.164;2023-07-22T01:21:08;3.40;;;3.10;;
21192;SDS011;10754;51.106;7.164;2023-07-22T01:23:35;4.18;;;3.67;;
21192;SDS011;10754;51.106;7.164;2023-07-22T01:26:01;4.28;;;3.67;;
21192;SDS011;10754;51.106;7.164;2023-07-22T01:28:28;3.90;;;3.60;;
21192;SDS011;10754;51.106;7.164;2023-07-22T01:30:53;3.92;;;3.63;;
21192;SDS011;10754;51.106;7.164;2023-07-22T01:33:19;4.13;;;3.75;;
21192;SDS011;10754;51.106;7.164;2023-07-22T01:35:44;4.47;;;4.15;;
21192;SDS011;10754;51.106;7.164;2023-07-22T01:38:10;4.38;;;3.97;;
21192;SDS011;10754;51.106;7.164;2023-07-22T01:40:36;3.83;;;3.53;;
21192;SDS011;10754;51.106;7.164;2023-07-22T01:43:01;4.57;;;4.10;;
21192;SDS011;10754;51.106;7.164;2023-07-22T01:45:27;4.20;;;3.80;;
21192;SDS011;10754;51.106;7.164;2023-07-22T01:47:52;5.00;;;4.60;;
21192;SDS011;10754;51.106;7.164;2023-07-22T01:50:17;4.47;;;4.13;;
21192;SDS011;10754;51.106;7.164;2023-07-22T01:52:43;4.60;;;4.20;;
21192;SDS011;10754;51.106;7.164;2023-07-22T01:55:11;4.30;;;3.90;;
21192;SDS011;10754;51.106;7.164;2023-07-22T01:57:37;5.13;;;4.63;;
21192;SDS011;10754;51.106;7.164;2023-07-22T02:00:02;4.78;;;4.35;;
21192;SDS011;10754;51.106;7.164;2023-07-22T02:02:30;5.00;;;4.60;;
21192;SDS011;10754;51.106;7.164;2023-07-22T02:04:55;5.90;;;4.53;;
21192;SDS011;10754;51.106;7.164;2023-07-22T02:07:21;4.60;;;4.20;;
21192;SDS011;10754;51.106;7.164;2023-07-22T02:09:46;4.22;;;3.83;;
21192;SDS011;10754;51.106;7.164;2023-07-22T02:12:12;4.93;;;4.43;;
21192;SDS011;10754;51.106;7.164;2023-07-22T02:14:37;4.47;;;4.07;;
21192;SDS011;10754;51.106;7.164;2023-07-22T02:17:03;4.63;;;4.22;;
21192;SDS011;10754;51.106;7.164;2023-07-22T02:19:29;4.75;;;4.35;;
21192;SDS011;10754;51.106;7.164;2023-07-22T02:21:54;5.35;;;4.60;;
21192;SDS011;10754;51.106;7.164;2023-07-22T02:24:20;4.97;;;4.45;;
21192;SDS011;10754;51.106;7.164;2023-07-22T02:26:45;4.63;;;4.20;;
21192;SDS011;10754;51.106;7.164;2023-07-22T02:29:11;4.20;;;3.90;;
21192;SDS011;10754;51.106;7.164;2023-07-22T02:31:37;5.25;;;4.75;;
21192;SDS011;10754;51.106;7.164;2023-07-22T02:34:03;5.00;;;4.60;;
21192;SDS011;10754;51.106;7.164;2023-07-22T02:36:28;4.82;;;4.32;;
21192;SDS011;10754;51.106;7.164;2023-07-22T02:38:53;4.80;;;4.40;;
21192;SDS011;10754;51.106;7.164;2023-07-22T02:41:19;5.60;;;4.43;;
21192;SDS011;10754;51.106;7.164;2023-07-22T02:43:46;4.43;;;4.13;;
21192;SDS011;10754;51.106;7.164;2023-07-22T02:46:12;4.80;;;4.38;;
21192;SDS011;10754;51.106;7.164;2023-07-22T02:48:37;5.05;;;4.40;;
21192;SDS011;10754;51.106;7.164;2023-07-22T02:51:04;5.28;;;4.78;;
21192;SDS011;10754;51.106;7.164;2023-07-22T02:53:34;5.60;;;5.00;;
21192;SDS011;10754;51.106;7.164;2023-07-22T02:56:01;5.65;;;5.15;;
21192;SDS011;10754;51.106;7.164;2023-07-22T02:58:28;5.22;;;4.68;;
21192;SDS011;10754;51.106;7.164;2023-07-22T03:00:53;5.30;;;4.75;;
21192;SDS011;10754;51.106;7.164;2023-07-22T03:03:19;5.22;;;4.60;;
21192;SDS011;10754;51.106;7.164;2023-07-22T03:05:44;6.22;;;5.35;;
21192;SDS011;10754;51.106;7.164;2023-07-22T03:08:10;5.35;;;4.85;;
21192;SDS011;10754;51.106;7.164;2023-07-22T03:10:35;5.15;;;4.65;;
21192;SDS011;10754;51.106;7.164;2023-07-22T03:13:01;5.35;;;4.90;;
21192;SDS011;10754;51.106;7.164;2023-07-22T03:15:28;5.10;;;4.60;;
21192;SDS011;10754;51.106;7.164;2023-07-22T03:17:54;4.38;;;4.00;;
21192;SDS011;10754;51.106;7.164;2023-07-22T03:20:20;5.20;;;4.22;;
21192;SDS011;10754;51.106;7.164;2023-07-22T03:22:47;5.45;;;4.95;;
21192;SDS011;10754;51.106;7.164;2023-07-22T03:25:13;4.93;;;4.53;;
21192;SDS011;10754;51.106;7.164;2023-07-22T03:27:42;5.43;;;4.97;;
21192;SDS011;10754;51.106;7.164;2023-07-22T03:30:08;5.05;;;4.55;;
21192;SDS011;10754;51.106;7.164;2023-07-22T03:32:36;5.28;;;4.80;;
21192;SDS011;10754;51.106;7.164;2023-07-22T03:35:01;4.80;;;4.40;;
21192;SDS011;10754;51.106;7.164;2023-07-22T03:37:28;5.07;;;4.57;;
21192;SDS011;10754;51.106;7.164;2023-07-22T03:39:54;5.35;;;4.85;;
21192;SDS011;10754;51.106;7.164;2023-07-22T03:42:19;4.68;;;4.15;;
21192;SDS011;10754;51.106;7.164;2023-07-22T03:44:45;4.70;;;4.22;;
21192;SDS011;10754;51.106;7.164;2023-07-22T03:47:10;5.13;;;4.00;;
21192;SDS011;10754;51.106;7.164;2023-07-22T03:49:36;5.20;;;4.80;;
21192;SDS011;10754;51.106;7.164;2023-07-22T03:52:01;5.90;;;5.30;;
21192;SDS011;10754;51.106;7.164;2023-07-22T03:54:27;4.75;;;4.15;;
21192;SDS011;10754;51.106;7.164;2023-07-22T03:56:53;5.25;;;4.72;;
21192;SDS011;10754;51.106;7.164;2023-07-22T03:59:18;4.93;;;4.53;;
21192;SDS011;10754;51.106;7.164;2023-07-22T04:01:43;5.13;;;4.63;;
21192;SDS011;10754;51.106;7.164;2023-07-22T04:04:09;4.32;;;3.92;;
21192;SDS011;10754;51.106;7.164;2023-07-22T04:06:34;4.50;;;4.10;;
21192;SDS011;10754;51.106;7.164;2023-07-22T04:09:00;4.97;;;4.50;;
21192;SDS011;10754;51.106;7.164;2023-07-22T04:11:26;4.20;;;3.90;;
21192;SDS011;10754;51.106;7.164;2023-07-22T04:13:52;5.05;;;4.40;;
21192;SDS011;10754;51.106;7.164;2023-07-22T04:16:18;4.57;;;4.18;;
21192;SDS011;10754;51.106;7.164;2023-07-22T04:18:43;4.82;;;4.30;;
21192;SDS011;10754;51.106;7.164;2023-07-22T04:21:09;4.70;;;4.30;;
21192;SDS011;10754;51.106;7.164;2023-07-22T04:23:34;4.80;;;4.13;;
21192;SDS011;10754;51.106;7.164;2023-07-22T04:26:01;7.47;;;4.28;;
21192;SDS011;10754;51.106;7.164;2023-07-22T04:28:29;4.72;;;4.28;;
21192;SDS011;10754;51.106;7.164;2023-07-22T04:30:56;4.50;;;4.03;;
21192;SDS011;10754;51.106;7.164;2023-07-22T04:33:23;5.00;;;4.47;;
21192;SDS011;10754;51.106;7.164;2023-07-22T04:35:49;5.35;;;4.85;;
21192;SDS011;10754;51.106;7.164;2023-07-22T04:38:14;5.93;;;4.10;;
21192;SDS011;10754;51.106;7.164;2023-07-22T04:40:43;4.32;;;3.92;;
21192;SDS011;10754;51.106;7.164;2023-07-22T04:43:09;4.70;;;4.20;;
21192;SDS011;10754;51.106;7.164;2023-07-22T04:45:34;4.35;;;3.95;;
21192;SDS011;10754;51.106;7.164;2023-07-22T04:48:00;4.57;;;3.92;;
21192;SDS011;10754;51.106;7.164;2023-07-22T04:50:26;4.55;;;4.15;;
21192;SDS011;10754;51.106;7.164;2023-07-22T04:52:52;4.80;;;4.40;;
21192;SDS011;10754;51.106;7.164;2023-07-22T04:55:18;4.15;;;3.85;;
21192;SDS011;10754;51.106;7.164;2023-07-22T04:57:44;5.15;;;3.95;;
21192;SDS011;10754;51.106;7.164;2023-07-22T05:00:12;5.85;;;4.88;;
21192;SDS011;10754;51.106;7.164;2023-07-22T05:02:41;4.50;;;3.95;;
21192;SDS011;10754;51.106;7.164;2023-07-22T05:05:09;4.93;;;3.50;;
21192;SDS011;10754;51.106;7.164;2023-07-22T05:07:34;3.78;;;3.47;;
21192;SDS011;10754;51.106;7.164;2023-07-22T05:10:00;4.13;;;3.63;;
21192;SDS011;10754;51.106;7.164;2023-07-22T05:12:26;4.22;;;3.70;;
21192;SDS011;10754;51.106;7.164;2023-07-22T05:14:51;4.28;;;3.88;;
21192;SDS011;10754;51.106;7.164;2023-07-22T05:17:17;4.50;;;4.10;;
21192;SDS011;10754;51.106;7.164;2023-07-22T05:19:42;4.00;;;3.63;;
21192;SDS011;10754;51.106;7.164;2023-07-22T05:22:08;4.15;;;3.83;;
21192;SDS011;10754;51.106;7.164;2023-07-22T05:24:34;4.30;;;3.90;;
21192;SDS011;10754;51.106;7.164;2023-07-22T05:26:59;4.30;;;3.90;;
21192;SDS011;10754;51.106;7.164;2023-07-22T05:29:25;4.22;;;3.63;;
21192;SDS011;10754;51.106;7.164;2023-07-22T05:31:50;4.15;;;3.75;;
21192;SDS011;10754;51.106;7.164;2023-07-22T05:34:16;4.15;;;3.75;;
21192;SDS011;10754;51.106;7.164;2023-07-22T05:36:41;6.20;;;4.30;;
21192;SDS011;10754;51.106;7.164;2023-07-22T05:39:07;4.18;;;3.80;;
21192;SDS011;10754;51.106;7.164;2023-07-22T05:41:33;4.20;;;3.80;;
21192;SDS011;10754;51.106;7.164;2023-07-22T05:43:58;4.20;;;3.80;;
21192;SDS011;10754;51.106;7.164;2023-07-22T05:46:24;4.10;;;3.70;;
21192;SDS011;10754;51.106;7.164;2023-07-22T05:48:50;4.30;;;3.90;;
21192;SDS011;10754;51.106;7.164;2023-07-22T05:51:15;4.97;;;3.75;;
21192;SDS011;10754;51.106;7.164;2023-07-22T05:53:41;4.20;;;3.80;;
21192;SDS011;10754;51.106;7.164;2023-07-22T05:56:07;4.25;;;3.85;;
21192;SDS011;10754;51.106;7.164;2023-07-22T05:58:32;3.92;;;3.63;;
21192;SDS011;10754;51.106;7.164;2023-07-22T06:00:58;4.57;;;4.18;;
21192;SDS011;10754;51.106;7.164;2023-07-22T06:03:24;4.70;;;4.05;;
21192;SDS011;10754;51.106;7.164;2023-07-22T06:05:49;4.35;;;3.95;;
21192;SDS011;10754;51.106;7.164;2023-07-22T06:08:15;4.72;;;4.32;;
21192;SDS011;10754;51.106;7.164;2023-07-22T06:10:40;4.07;;;3.70;;
21192;SDS011;10754;51.106;7.164;2023-07-22T06:13:06;4.47;;;4.15;;
21192;SDS011;10754;51.106;7.164;2023-07-22T06:15:32;4.45;;;4.05;;
21192;SDS011;10754;51.106;7.164;2023-07-22T06:17:58;4.40;;;4.00;;
21192;SDS011;10754;51.106;7.164;2023-07-22T06:20:24;4.55;;;4.15;;
21192;SDS011;10754;51.106;7.164;2023-07-22T06:22:50;4.78;;;4.30;;
21192;SDS011;10754;51.106;7.164;2023-07-22T06:25:16;4.55;;;4.15;;
21192;SDS011;10754;51.106;7.164;2023-07-22T06:27:41;4.57;;;3.80;;
21192;SDS011;10754;51.106;7.164;2023-07-22T06:30:07;4.70;;;4.30;;
21192;SDS011;10754;51.106;7.164;2023-07-22T06:32:33;5.00;;;4.50;;
21192;SDS011;10754;51.106;7.164;2023-07-22T06:35:00;4.05;;;3.75;;
21192;SDS011;10754;51.106;7.164;2023-07-22T06:37:26;4.90;;;4.47;;
21192;SDS011;10754;51.106;7.164;2023-07-22T06:39:51;4.95;;;4.55;;
21192;SDS011;10754;51.106;7.164;2023-07-22T06:42:17;4.88;;;4.28;;
21192;SDS011;10754;51.106;7.164;2023-07-22T06:44:43;5.85;;;3.90;;
21192;SDS011;10754;51.106;7.164;2023-07-22T06:47:08;4.47;;;4.05;;
21192;SDS011;10754;51.106;7.164;2023-07-22T06:49:34;4.90;;;4.50;;
21192;SDS011;10754;51.106;7.164;2023-07-22T06:51:59;5.65;;;3.88;;
21192;SDS011;10754;51.106;7.164;2023-07-22T06:54:26;4.63;;;4.22;;
21192;SDS011;10754;51.106;7.164;2023-07-22T06:56:52;4.50;;;4.10;;
21192;SDS011;10754;51.106;7.164;2023-07-22T06:59:17;5.28;;;4.30;;
21192;SDS011;10754;51.106;7.164;2023-07-22T07:01:43;5.28;;;3.83;;
21192;SDS011;10754;51.106;7.164;2023-07-22T07:04:08;4.13;;;3.78;;
21192;SDS011;10754;51.106;7.164;2023-07-22T07:06:34;4.20;;;3.80;;
21192;SDS011;10754;51.106;7.164;2023-07-22T07:08:59;5.03;;;4.53;;
21192;SDS011;10754;51.106;7.164;2023-07-22T07:11:28;4.88;;;4.22;;
21192;SDS011;10754;51.106;7.164;2023-07-22T07:13:54;4.82;;;4.32;;
21192;SDS011;10754;51.106;7.164;2023-07-22T07:16:21;5.13;;;4.53;;
21192;SDS011;10754;51.106;7.164;2023-07-22T07:18:50;4.72;;;3.67;;
21192;SDS011;10754;51.106;7.164;2023-07-22T07:21:17;5.38;;;4.28;;
21192;SDS011;10754;51.106;7.164;2023-07-22T07:23:44;5.00;;;4.50;;
21192;SDS011;10754;51.106;7.164;2023-07-22T07:26:09;4.35;;;3.95;;
21192;SDS011;10754;51.106;7.164;2023-07-22T07:28:35;4.35;;;3.95;;
21192;SDS011;10754;51.106;7.164;2023-07-22T07:31:01;5.38;;;4.30;;
21192;SDS011;10754;51.106;7.164;2023-07-22T07:33:26;4.38;;;3.97;;
21192;SDS011;10754;51.106;7.164;2023-07-22T07:35:52;4.90;;;4.30;;
21192;SDS011;10754;51.106;7.164;2023-07-22T07:38:18;4.90;;;4.50;;
21192;SDS011;10754;51.106;7.164;2023-07-22T07:40:43;4.30;;;3.90;;
21192;SDS011;10754;51.106;7.164;2023-07-22T07:43:09;4.50;;;4.10;;
21192;SDS011;10754;51.106;7.164;2023-07-22T07:45:38;4.30;;;3.90;;
21192;SDS011;10754;51.106;7.164;2023-07-22T07:48:05;5.18;;;4.43;;
21192;SDS011;10754;51.106;7.164;2023-07-22T07:50:30;4.45;;;4.03;;
21192;SDS011;10754;51.106;7.164;2023-07-22T07:52:57;5.07;;;4.57;;
21192;SDS011;10754;51.106;7.164;2023-07-22T07:55:23;5.47;;;3.90;;
21192;SDS011;10754;51.106;7.164;2023-07-22T07:57:48;4.28;;;3.88;;
21192;SDS011;10754;51.106;7.164;2023-07-22T08:00:14;5.07;;;4.00;;
21192;SDS011;10754;51.106;7.164;2023-07-22T08:02:40;4.63;;;4.22;;
21192;SDS011;10754;51.106;7.164;2023-07-22T08:05:05;5.70;;;5.07;;
21192;SDS011;10754;51.106;7.164;2023-07-22T08:07:31;5.18;;;4.45;;
21192;SDS011;10754;51.106;7.164;2023-07-22T08:09:56;4.60;;;4.20;;
21192;SDS011;10754;51.106;7.164;2023-07-22T08:12:23;6.38;;;4.97;;
21192;SDS011;10754;51.106;7.164;2023-07-22T08:14:49;5.10;;;4.60;;
21192;SDS011;10754;51.106;7.164;2023-07-22T08:17:14;4.78;;;4.38;;
21192;SDS011;10754;51.106;7.164;2023-07-22T08:19:40;4.60;;;4.20;;
21192;SDS011;10754;51.106;7.164;2023-07-22T08:22:05;5.00;;;4.60;;
21192;SDS011;10754;51.106;7.164;2023-07-22T08:24:31;4.68;;;4.28;;
21192;SDS011;10754;51.106;7.164;2023-07-22T08:26:57;5.03;;;4.45;;
21192;SDS011;10754;51.106;7.164;2023-07-22T08:29:23;5.15;;;4.65;;
21192;SDS011;10754;51.106;7.164;2023-07-22T08:31:49;7.07;;;5.45;;
21192;SDS011;10754;51.106;7.164;2023-07-22T08:34:15;5.43;;;4.93;;
21192;SDS011;10754;51.106;7.164;2023-07-22T08:36:41;6.25;;;5.18;;
21192;SDS011;10754;51.106;7.164;2023-07-22T08:39:07;5.28;;;4.78;;
21192;SDS011;10754;51.106;7.164;2023-07-22T08:41:32;4.90;;;4.25;;
21192;SDS011;10754;51.106;7.164;2023-07-22T08:43:59;5.57;;;4.35;;
21192;SDS011;10754;51.106;7.164;2023-07-22T08:46:29;5.60;;;4.13;;
21192;SDS011;10754;51.106;7.164;2023-07-22T08:48:59;4.95;;;4.20;;
21192;SDS011;10754;51.106;7.164;2023-07-22T08:51:26;5.50;;;4.25;;
21192;SDS011;10754;51.106;7.164;2023-07-22T08:53:55;4.10;;;3.75;;
21192;SDS011;10754;51.106;7.164;2023-07-22T08:56:24;4.68;;;3.88;;
21192;SDS011;10754;51.106;7.164;2023-07-22T08:58:51;4.38;;;3.97;;
21192;SDS011;10754;51.106;7.164;2023-07-22T09:01:21;6.38;;;4.07;;
21192;SDS011;10754;51.106;7.164;2023-07-22T09:03:48;5.22;;;3.88;;
21192;SDS011;10754;51.106;7.164;2023-07-22T09:06:16;4.53;;;3.40;;
21192;SDS011;10754;51.106;7.164;2023-07-22T09:08:42;4.20;;;3.33;;
21192;SDS011;10754;51.106;7.164;2023-07-22T09:11:08;4.68;;;3.25;;
21192;SDS011;10754;51.106;7.164;2023-07-22T09:13:34;3.10;;;2.90;;
21192;SDS011;10754;51.106;7.164;2023-07-22T09:16:00;4.72;;;3.08;;
21192;SDS011;10754;51.106;7.164;2023-07-22T09:18:27;5.90;;;3.00;;
21192;SDS011;10754;51.106;7.164;2023-07-22T09:20:52;4.05;;;3.15;;
21192;SDS011;10754;51.106;7.164;2023-07-22T09:23:18;3.83;;;3.13;;
21192;SDS011;10754;51.106;7.164;2023-07-22T09:25:57;4.18;;;3.78;;
21192;SDS011;10754;51.106;7.164;2023-07-22T09:28:50;4.45;;;3.00;;
21192;SDS011;10754;51.106;7.164;2023-07-22T09:31:20;3.65;;;3.33;;
21192;SDS011;10754;51.106;7.164;2023-07-22T09:33:47;3.83;;;3.20;;
21192;SDS011;10754;51.106;7.164;2023-07-22T09:36:12;3.50;;;3.20;;
21192;SDS011;10754;51.106;7.164;2023-07-22T09:38:38;3.20;;;2.90;;
21192;SDS011;10754;51.106;7.164;2023-07-22T09:41:04;3.38;;;2.95;;
21192;SDS011;10754;51.106;7.164;2023-07-22T09:43:30;4.18;;;3.15;;
21192;SDS011;10754;51.106;7.164;2023-07-22T09:45:56;3.28;;;2.90;;
21192;SDS011;10754;51.106;7.164;2023-07-22T09:48:44;4.30;;;2.95;;
21192;SDS011;10754;51.106;7.164;2023-07-22T09:51:16;5.47;;;3.10;;
21192;SDS011;10754;51.106;7.164;2023-07-22T09:53:45;5.20;;;2.88;;
21192;SDS011;10754;51.106;7.164;2023-07-22T09:56:12;5.85;;;3.08;;
21192;SDS011;10754;51.106;7.164;2023-07-22T09:58:38;3.72;;;2.83;;
21192;SDS011;10754;51.106;7.164;2023-07-22T10:01:04;3.55;;;2.40;;
21192;SDS011;10754;51.106;7.164;2023-07-22T10:03:32;2.40;;;2.20;;
21192;SDS011;10754;51.106;7.164;2023-07-22T10:06:00;3.58;;;2.30;;
21192;SDS011;10754;51.106;7.164;2023-07-22T10:08:29;5.30;;;2.50;;
21192;SDS011;10754;51.106;7.164;2023-07-22T10:10:57;3.20;;;2.67;;
21192;SDS011;10754;51.106;7.164;2023-07-22T10:13:25;4.53;;;2.30;;
21192;SDS011;10754;51.106;7.164;2023-07-22T10:15:51;3.15;;;2.60;;
21192;SDS011;10754;51.106;7.164;2023-07-22T10:18:17;3.70;;;2.67;;
21192;SDS011;10754;51.106;7.164;2023-07-22T10:20:45;17.00;;;3.45;;
21192;SDS011;10754;51.106;7.164;2023-07-22T10:23:11;2.88;;;2.25;;
21192;SDS011;10754;51.106;7.164;2023-07-22T10:25:39;2.35;;;2.00;;
21192;SDS011;10754;51.106;7.164;2023-07-22T10:28:04;2.47;;;2.28;;
21192;SDS011;10754;51.106;7.164;2023-07-22T10:30:31;3.40;;;1.98;;
21192;SDS011;10754;51.106;7.164;2023-07-22T10:32:57;5.07;;;2.33;;
21192;SDS011;10754;51.106;7.164;2023-07-22T10:38:13;1.77;;;1.67;;
21192;SDS011;10754;51.106;7.164;2023-07-22T10:43:17;3.53;;;2.38;;
21192;SDS011;10754;51.106;7.164;2023-07-22T10:45:49;3.88;;;2.03;;
21192;SDS011;10754;51.106;7.164;2023-07-22T10:48:16;2.13;;;2.00;;
21192;SDS011;10754;51.106;7.164;2023-07-22T10:50:43;8.60;;;2.20;;
21192;SDS011;10754;51.106;7.164;2023-07-22T11:06:30;2.47;;;1.50;;
21192;SDS011;10754;51.106;7.164;2023-07-22T11:08:56;2.47;;;1.45;;
21192;SDS011;10754;51.106;7.164;2023-07-22T11:11:33;2.53;;;1.65;;
21192;SDS011;10754;51.106;7.164;2023-07-22T11:14:14;1.75;;;1.50;;
21192;SDS011;10754;51.106;7.164;2023-07-22T11:16:44;1.63;;;1.52;;
21192;SDS011;10754;51.106;7.164;2023-07-22T11:19:12;1.80;;;1.50;;
21192;SDS011;10754;51.106;7.164;2023-07-22T11:21:42;3.35;;;1.52;;
21192;SDS011;10754;51.106;7.164;2023-07-22T11:24:12;2.42;;;1.60;;
21192;SDS011;10754;51.106;7.164;2023-07-22T11:26:38;1.45;;;1.33;;
21192;SDS011;10754;51.106;7.164;2023-07-22T11:29:05;1.75;;;1.50;;
21192;SDS011;10754;51.106;7.164;2023-07-22T11:31:32;2.83;;;1.73;;
21192;SDS011;10754;51.106;7.164;2023-07-22T11:34:02;1.38;;;1.27;;
21192;SDS011;10754;51.106;7.164;2023-07-22T11:36:28;2.38;;;1.67;;
21192;SDS011;10754;51.106;7.164;2023-07-22T11:38:54;2.00;;;1.63;;
21192;SDS011;10754;51.106;7.164;2023-07-22T11:41:25;1.77;;;1.30;;
21192;SDS011;10754;51.106;7.164;2023-07-22T11:43:51;1.40;;;1.30;;
21192;SDS011;10754;51.106;7.164;2023-07-22T11:46:17;1.35;;;1.25;;
21192;SDS011;10754;51.106;7.164;2023-07-22T11:48:49;2.17;;;1.65;;
21192;SDS011;10754;51.106;7.164;2023-07-22T11:51:17;1.48;;;1.27;;
21192;SDS011;10754;51.106;7.164;2023-07-22T11:53:47;1.48;;;1.38;;
21192;SDS011;10754;51.106;7.164;2023-07-22T11:56:17;1.77;;;1.50;;
21192;SDS011;10754;51.106;7.164;2023-07-22T11:58:47;1.52;;;1.42;;
21192;SDS011;10754;51.106;7.164;2023-07-22T12:01:14;2.47;;;1.60;;
21192;SDS011;10754;51.106;7.164;2023-07-22T12:03:40;1.40;;;1.30;;
21192;SDS011;10754;51.106;7.164;2023-07-22T12:06:06;1.48;;;1.23;;
21192;SDS011;10754;51.106;7.164;2023-07-22T12:08:32;2.13;;;1.27;;
21192;SDS011;10754;51.106;7.164;2023-07-22T12:10:58;1.60;;;1.50;;
21192;SDS011;10754;51.106;7.164;2023-07-22T12:13:24;1.63;;;1.30;;
21192;SDS011;10754;51.106;7.164;2023-07-22T12:16:03;2.47;;;1.50;;
21192;SDS011;10754;51.106;7.164;2023-07-22T12:18:46;1.48;;;1.35;;
21192;SDS011;10754;51.106;7.164;2023-07-22T12:21:12;1.45;;;1.20;;
21192;SDS011;10754;51.106;7.164;2023-07-22T12:23:39;1.20;;;1.10;;
21192;SDS011;10754;51.106;7.164;2023-07-22T12:26:05;1.48;;;1.38;;
21192;SDS011;10754;51.106;7.164;2023-07-22T12:28:31;1.77;;;1.30;;
21192;SDS011;10754;51.106;7.164;2023-07-22T12:30:57;1.52;;;1.35;;
21192;SDS011;10754;51.106;7.164;2023-07-22T12:33:23;1.40;;;1.30;;
21192;SDS011;10754;51.106;7.164;2023-07-22T12:35:49;1.70;;;1.48;;
21192;SDS011;10754;51.106;7.164;2023-07-22T12:38:15;1.48;;;1.38;;
21192;SDS011;10754;51.106;7.164;2023-07-22T12:40:41;2.28;;;1.45;;
21192;SDS011;10754;51.106;7.164;2023-07-22T12:43:06;1.73;;;1.40;;
21192;SDS011;10754;51.106;7.164;2023-07-22T12:45:33;1.67;;;1.50;;
21192;SDS011;10754;51.106;7.164;2023-07-22T12:47:58;1.50;;;1.40;;
21192;SDS011;10754;51.106;7.164;2023-07-22T12:50:24;1.55;;;1.38;;
21192;SDS011;10754;51.106;7.164;2023-07-22T12:52:49;2.00;;;1.67;;
21192;SDS011;10754;51.106;7.164;2023-07-22T12:55:15;1.70;;;1.60;;
21192;SDS011;10754;51.106;7.164;2023-07-22T12:57:40;1.95;;;1.50;;
21192;SDS011;10754;51.106;7.164;2023-07-22T13:00:06;1.95;;;1.40;;
21192;SDS011;10754;51.106;7.164;2023-07-22T13:02:34;1.90;;;1.73;;
21192;SDS011;10754;51.106;7.164;2023-07-22T13:05:00;1.85;;;1.73;;
21192;SDS011;10754;51.106;7.164;2023-07-22T13:07:26;2.35;;;1.38;;
21192;SDS011;10754;51.106;7.164;2023-07-22T13:09:52;1.60;;;1.45;;
21192;SDS011;10754;51.106;7.164;2023-07-22T13:12:20;1.30;;;1.20;;
21192;SDS011;10754;51.106;7.164;2023-07-22T13:14:45;3.60;;;1.27;;
21192;SDS011;10754;51.106;7.164;2023-07-22T13:17:11;3.28;;;1.30;;
21192;SDS011;10754;51.106;7.164;2023-07-22T13:19:36;2.50;;;1.30;;
21192;SDS011;10754;51.106;7.164;2023-07-22T13:22:02;1.50;;;1.20;;
21192;SDS011;10754;51.106;7.164;2023-07-22T13:24:27;2.88;;;1.90;;
21192;SDS011;10754;51.106;7.164;2023-07-22T13:26:53;1.33;;;1.23;;
21192;SDS011;10754;51.106;7.164;2023-07-22T13:29:19;3.22;;;1.88;;
21192;SDS011;10754;51.106;7.164;2023-07-22T13:31:44;1.15;;;1.05;;
21192;SDS011;10754;51.106;7.164;2023-07-22T13:34:10;3.90;;;1.33;;
21192;SDS011;10754;51.106;7.164;2023-07-22T13:36:36;1.50;;;1.40;;
21192;SDS011;10754;51.106;7.164;2023-07-22T13:39:01;1.88;;;1.15;;
21192;SDS011;10754;51.106;7.164;2023-07-22T13:41:27;2.88;;;1.33;;
21192;SDS011;10754;51.106;7.164;2023-07-22T13:43:53;1.30;;;1.20;;
21192;SDS011;10754;51.106;7.164;2023-07-22T13:46:19;2.13;;;1.33;;
21192;SDS011;10754;51.106;7.164;2023-07-22T13:48:45;1.92;;;1.30;;
21192;SDS011;10754;51.106;7.164;2023-07-22T13:51:10;1.20;;;1.00;;
21192;SDS011;10754;51.106;7.164;2023-07-22T13:53:36;3.67;;;1.30;;
21192;SDS011;10754;51.106;7.164;2023-07-22T13:56:01;1.52;;;1.25;;
21192;SDS011;10754;51.106;7.164;2023-07-22T13:58:28;1.42;;;1.00;;
21192;SDS011;10754;51.106;7.164;2023-07-22T14:00:53;2.42;;;1.05;;
21192;SDS011;10754;51.106;7.164;2023-07-22T14:03:19;1.30;;;1.17;;
21192;SDS011;10754;51.106;7.164;2023-07-22T14:05:44;1.60;;;1.42;;
21192;SDS011;10754;51.106;7.164;2023-07-22T14:08:11;1.35;;;1.25;;
21192;SDS011;10754;51.106;7.164;2023-07-22T14:10:36;1.77;;;1.67;;
21192;SDS011;10754;51.106;7.164;2023-07-22T14:13:02;1.35;;;1.25;;
21192;SDS011;10754;51.106;7.164;2023-07-22T14:15:27;1.45;;;1.25;;
21192;SDS011;10754;51.106;7.164;2023-07-22T14:17:53;2.80;;;1.40;;
21192;SDS011;10754;51.106;7.164;2023-07-22T14:20:19;4.13;;;1.52;;
21192;SDS011;10754;51.106;7.164;2023-07-22T14:22:44;2.38;;;1.40;;
21192;SDS011;10754;51.106;7.164;2023-07-22T14:25:10;1.52;;;1.42;;
21192;SDS011;10754;51.106;7.164;2023-07-22T14:27:37;2.05;;;1.73;;
21192;SDS011;10754;51.106;7.164;2023-07-22T14:30:03;1.52;;;1.42;;
21192;SDS011;10754;51.106;7.164;2023-07-22T14:32:30;2.60;;;1.67;;
21192;SDS011;10754;51.106;7.164;2023-07-22T14:34:56;1.40;;;1.30;;
21192;SDS011;10754;51.106;7.164;2023-07-22T14:37:21;3.28;;;1.50;;
21192;SDS011;10754;51.106;7.164;2023-07-22T14:39:48;1.55;;;1.45;;
21192;SDS011;10754;51.106;7.164;2023-07-22T14:42:14;4.18;;;1.70;;
21192;SDS011;10754;51.106;7.164;2023-07-22T14:44:39;2.42;;;1.35;;
21192;SDS011;10754;51.106;7.164;2023-07-22T14:47:05;1.50;;;1.40;;
21192;SDS011;10754;51.106;7.164;2023-07-22T14:49:30;1.65;;;1.55;;
21192;SDS011;10754;51.106;7.164;2023-07-22T14:51:56;1.85;;;1.75;;
21192;SDS011;10754;51.106;7.164;2023-07-22T14:54:21;1.52;;;1.38;;
21192;SDS011;10754;51.106;7.164;2023-07-22T14:56:47;1.70;;;1.60;;
21192;SDS011;10754;51.106;7.164;2023-07-22T14:59:14;1.88;;;1.77;;
21192;SDS011;10754;51.106;7.164;2023-07-22T15:01:40;1.70;;;1.60;;